createdAt,value
2019-02-19T00:01:17.064Z,2.00
2019-02-19T00:03:47.447Z,2.00
2019-02-19T00:06:17.851Z,2.00
2019-02-19T00:08:48.227Z,2.00
2019-02-19T00:11:18.624Z,1.90
2019-02-19T00:13:49.001Z,1.90
2019-02-19T00:16:19.397Z,1.90
2019-02-19T00:18:49.775Z,1.90
2019-02-19T00:21:32.755Z,1.80
2019-02-19T00:24:03.133Z,1.80
2019-02-19T00:26:33.527Z,1.80
2019-02-19T00:29:03.897Z,1.80
2019-02-19T00:31:34.305Z,1.80
2019-02-19T00:34:04.689Z,1.80
2019-02-19T00:36:35.110Z,1.80
2019-02-19T00:39:06.805Z,1.80
2019-02-19T00:41:37.201Z,1.80
2019-02-19T00:44:07.585Z,1.80
2019-02-19T00:46:37.981Z,1.90
2019-02-19T00:49:08.356Z,1.90
2019-02-19T00:51:40.601Z,1.90
2019-02-19T00:54:10.966Z,1.80
2019-02-19T00:56:45.299Z,1.80
2019-02-19T00:59:16.733Z,1.80
2019-02-19T01:01:48.804Z,1.80
2019-02-19T01:04:19.178Z,1.80
2019-02-19T01:06:49.682Z,1.80
2019-02-19T01:09:20.064Z,1.80
2019-02-19T01:11:50.538Z,1.80
2019-02-19T01:14:20.915Z,1.80
2019-02-19T01:16:51.302Z,1.70
2019-02-19T01:19:21.690Z,1.70
2019-02-19T01:21:52.106Z,1.70
2019-02-19T01:24:22.474Z,1.70
2019-02-19T01:26:52.921Z,1.70
2019-02-19T01:29:23.286Z,1.70
2019-02-19T01:31:53.733Z,1.60
2019-02-19T01:34:24.105Z,1.60
2019-02-19T01:36:54.533Z,1.60
2019-02-19T01:39:24.903Z,1.60
2019-02-19T01:41:56.019Z,1.60
2019-02-19T01:44:26.425Z,1.50
2019-02-19T01:46:56.845Z,1.60
2019-02-19T01:49:27.222Z,1.60
2019-02-19T01:51:57.601Z,1.60
2019-02-19T01:54:27.991Z,1.70
2019-02-19T01:56:58.417Z,1.70
2019-02-19T01:59:28.789Z,1.80
2019-02-19T02:01:59.255Z,1.80
2019-02-19T02:04:29.631Z,1.80
2019-02-19T02:07:00.096Z,1.80
2019-02-19T02:09:30.456Z,1.90
2019-02-19T02:12:00.813Z,1.90
2019-02-19T02:14:31.187Z,1.90
2019-02-19T02:17:01.578Z,1.90
2019-02-19T02:19:31.957Z,1.90
2019-02-19T02:22:02.310Z,2.00
2019-02-19T02:24:32.695Z,2.00
2019-02-19T02:27:03.046Z,2.00
2019-02-19T02:29:33.430Z,2.00
2019-02-19T02:32:03.796Z,2.00
2019-02-19T02:34:34.179Z,2.00
2019-02-19T02:37:04.557Z,2.00
2019-02-19T02:39:35.896Z,2.00
2019-02-19T02:42:06.254Z,2.00
2019-02-19T02:44:36.638Z,2.00
2019-02-19T02:47:06.990Z,2.00
2019-02-19T02:49:37.372Z,2.00
2019-02-19T02:52:07.728Z,1.90
2019-02-19T02:54:38.112Z,1.90
2019-02-19T02:57:08.467Z,1.90
2019-02-19T02:59:38.865Z,1.90
2019-02-19T03:02:09.201Z,1.90
2019-02-19T03:04:39.646Z,1.80
2019-02-19T03:07:14.735Z,1.80
2019-02-19T03:09:45.125Z,1.80
2019-02-19T03:12:15.490Z,1.80
2019-02-19T03:14:45.880Z,1.80
2019-02-19T03:17:16.242Z,1.80
2019-02-19T03:19:46.627Z,1.80
2019-02-19T03:22:16.991Z,1.80
2019-02-19T03:24:47.373Z,1.80
2019-02-19T03:27:17.727Z,1.80
2019-02-19T03:29:48.099Z,1.80
2019-02-19T03:32:18.458Z,1.80
2019-02-19T03:34:48.836Z,1.80
2019-02-19T03:37:19.284Z,1.90
2019-02-19T03:39:50.634Z,1.90
2019-02-19T03:42:21.258Z,1.90
2019-02-19T03:44:51.635Z,2.00
2019-02-19T03:47:22.007Z,2.00
2019-02-19T03:49:52.393Z,2.00
2019-02-19T03:52:22.752Z,2.10
2019-02-19T03:54:53.131Z,2.20
2019-02-19T03:57:23.756Z,2.40
2019-02-19T03:59:54.135Z,2.50
2019-02-19T04:02:24.680Z,2.60
2019-02-19T04:04:55.056Z,2.70
2019-02-19T04:07:25.421Z,2.70
2019-02-19T04:09:55.807Z,2.80
2019-02-19T04:12:26.161Z,2.70
2019-02-19T04:14:56.612Z,2.70
2019-02-19T04:17:26.963Z,2.70
2019-02-19T04:19:57.343Z,2.70
2019-02-19T04:22:27.713Z,2.80
2019-02-19T04:24:58.098Z,2.70
2019-02-19T04:27:28.454Z,2.70
2019-02-19T04:29:58.827Z,2.70
2019-02-19T04:32:29.296Z,2.60
2019-02-19T04:34:59.704Z,2.50
2019-02-19T04:37:30.211Z,2.40
2019-02-19T04:40:00.690Z,2.30
2019-02-19T04:42:31.037Z,2.30
2019-02-19T04:45:01.416Z,2.20
2019-02-19T04:47:31.783Z,2.10
2019-02-19T04:50:02.160Z,2.00
2019-02-19T04:52:32.513Z,2.00
2019-02-19T04:55:02.888Z,2.00
2019-02-19T04:57:33.244Z,1.90
2019-02-19T05:00:04.386Z,1.90
2019-02-19T05:02:34.820Z,1.80
2019-02-19T05:05:06.510Z,1.80
2019-02-19T05:07:36.876Z,1.70
2019-02-19T05:10:08.977Z,1.70
2019-02-19T05:12:40.309Z,1.70
2019-02-19T05:15:12.039Z,1.70
2019-02-19T05:17:42.404Z,1.60
2019-02-19T05:20:12.798Z,1.60
2019-02-19T05:22:43.158Z,1.60
2019-02-19T05:25:13.536Z,1.50
2019-02-19T05:27:43.898Z,1.60
2019-02-19T05:30:14.283Z,1.50
2019-02-19T05:32:44.648Z,1.50
2019-02-19T05:35:15.025Z,1.60
2019-02-19T05:37:45.389Z,1.60
2019-02-19T05:40:15.754Z,1.60
2019-02-19T05:42:46.114Z,1.60
2019-02-19T05:45:16.487Z,1.70
2019-02-19T05:47:46.914Z,1.80
2019-02-19T05:50:17.223Z,1.80
2019-02-19T05:52:47.685Z,1.80
2019-02-19T05:55:18.076Z,1.80
2019-02-19T05:57:48.703Z,1.70
2019-02-19T06:00:19.079Z,1.70
2019-02-19T06:02:49.697Z,1.60
2019-02-19T06:05:20.082Z,1.70
2019-02-19T06:07:50.448Z,1.70
2019-02-19T06:10:20.843Z,1.70
2019-02-19T06:12:51.203Z,1.70
2019-02-19T06:15:21.583Z,1.80
2019-02-19T06:17:51.941Z,1.80
2019-02-19T06:20:22.319Z,1.80
2019-02-19T06:22:52.729Z,1.90
2019-02-19T06:25:23.117Z,1.90
2019-02-19T06:27:53.466Z,1.90
2019-02-19T06:30:23.847Z,2.00
2019-02-19T06:32:54.208Z,2.10
2019-02-19T06:35:24.584Z,2.10
2019-02-19T06:37:54.946Z,2.20
2019-02-19T06:40:28.105Z,2.30
2019-02-19T06:42:58.416Z,2.40
2019-02-19T06:45:28.788Z,2.50
2019-02-19T06:47:59.153Z,2.60
2019-02-19T06:50:29.528Z,2.70
2019-02-19T06:52:59.884Z,2.80
2019-02-19T06:55:30.258Z,2.90
2019-02-19T06:58:00.646Z,3.00
2019-02-19T07:00:31.033Z,3.10
2019-02-19T07:03:12.260Z,3.20
2019-02-19T07:05:42.660Z,3.40
2019-02-19T07:08:13.010Z,3.50
2019-02-19T07:10:43.383Z,3.60
2019-02-19T07:13:13.750Z,3.80
2019-02-19T07:15:44.135Z,4.00
2019-02-19T07:18:14.492Z,4.10
2019-02-19T07:20:44.905Z,4.40
2019-02-19T07:23:15.266Z,4.60
2019-02-19T07:25:45.640Z,4.80
2019-02-19T07:28:16.039Z,5.00
2019-02-19T07:30:46.419Z,5.10
2019-02-19T07:33:16.812Z,5.20
2019-02-19T07:35:47.186Z,5.30
2019-02-19T07:38:17.561Z,5.40
2019-02-19T07:40:47.932Z,5.60
2019-02-19T07:43:18.321Z,5.80
2019-02-19T07:45:48.675Z,5.90
2019-02-19T07:48:19.074Z,6.20
2019-02-19T07:50:49.427Z,6.30
2019-02-19T07:53:19.808Z,6.60
2019-02-19T07:55:50.174Z,6.80
2019-02-19T07:58:20.626Z,7.00
2019-02-19T08:00:51.065Z,7.20
2019-02-19T08:03:21.439Z,7.50
2019-02-19T08:05:51.845Z,7.70
2019-02-19T08:08:22.216Z,8.00
2019-02-19T08:10:52.745Z,8.10
2019-02-19T08:13:23.180Z,8.40
2019-02-19T08:15:56.529Z,8.60
2019-02-19T08:18:30.198Z,8.90
2019-02-19T08:21:20.858Z,9.00
2019-02-19T08:23:51.238Z,9.30
2019-02-19T08:26:21.604Z,9.60
2019-02-19T08:28:51.983Z,9.70
2019-02-19T08:31:23.493Z,9.80
2019-02-19T08:33:53.870Z,9.90
2019-02-19T08:36:24.231Z,10.20
2019-02-19T08:39:07.484Z,10.20
2019-02-19T08:41:37.853Z,10.10
2019-02-19T08:44:08.538Z,10.00
2019-02-19T08:46:39.049Z,9.90
2019-02-19T08:49:09.427Z,9.70
2019-02-19T08:51:39.898Z,9.70
2019-02-19T08:54:10.355Z,9.90
2019-02-19T08:56:40.764Z,10.30
2019-02-19T08:59:11.172Z,10.60
2019-02-19T09:01:41.545Z,10.90
2019-02-19T09:04:11.929Z,11.00
2019-02-19T09:06:42.294Z,11.10
2019-02-19T09:09:12.689Z,11.30
2019-02-19T09:11:43.065Z,11.30
2019-02-19T09:14:13.549Z,11.20
2019-02-19T09:16:43.959Z,11.10
2019-02-19T09:19:14.431Z,11.40
2019-02-19T09:21:44.785Z,11.70
2019-02-19T09:24:18.685Z,12.10
2019-02-19T09:26:49.035Z,12.10
2019-02-19T09:29:19.476Z,11.90
2019-02-19T09:31:49.829Z,11.50
2019-02-19T09:34:20.217Z,11.30
2019-02-19T09:36:50.573Z,11.00
2019-02-19T09:39:20.977Z,10.90
2019-02-19T09:41:51.358Z,10.70
2019-02-19T09:44:21.757Z,10.50
2019-02-19T09:46:52.125Z,10.30
2019-02-19T09:49:22.508Z,10.30
2019-02-19T09:51:52.878Z,10.40
2019-02-19T09:54:23.266Z,10.50
2019-02-19T09:56:53.640Z,10.60
2019-02-19T09:59:24.021Z,10.60
2019-02-19T10:01:54.387Z,10.60
2019-02-19T10:04:24.783Z,10.60
2019-02-19T10:06:55.147Z,10.50
2019-02-19T10:09:25.533Z,10.50
2019-02-19T10:11:55.899Z,10.50
2019-02-19T10:14:26.288Z,10.40
2019-02-19T10:16:56.646Z,10.20
2019-02-19T10:19:27.034Z,10.20
2019-02-19T10:21:57.400Z,10.30
2019-02-19T10:24:27.797Z,10.40
2019-02-19T10:26:58.183Z,10.60
2019-02-19T10:29:30.185Z,10.60
2019-02-19T10:32:00.560Z,10.60
2019-02-19T10:34:30.958Z,10.60
2019-02-19T10:37:01.312Z,10.50
2019-02-19T10:39:44.359Z,10.40
2019-02-19T10:42:14.737Z,10.50
2019-02-19T10:44:45.120Z,10.40
2019-02-19T10:47:15.583Z,10.40
2019-02-19T10:49:45.976Z,10.40
2019-02-19T10:52:16.439Z,10.50
2019-02-19T10:54:46.820Z,10.50
2019-02-19T10:57:17.189Z,10.50
2019-02-19T10:59:47.634Z,10.50
2019-02-19T11:02:18.018Z,10.60
2019-02-19T11:04:48.405Z,10.70
2019-02-19T11:07:18.786Z,10.80
2019-02-19T11:09:49.225Z,11.00
2019-02-19T11:12:19.548Z,11.10
2019-02-19T11:14:49.940Z,11.30
2019-02-19T11:17:20.306Z,11.30
2019-02-19T11:19:50.691Z,11.60
2019-02-19T11:22:21.070Z,11.60
2019-02-19T11:24:51.456Z,11.60
2019-02-19T11:27:21.821Z,11.70
2019-02-19T11:29:52.215Z,11.80
2019-02-19T11:32:22.575Z,11.80
2019-02-19T11:34:52.963Z,11.70
2019-02-19T11:37:23.338Z,11.70
2019-02-19T11:39:53.721Z,11.80
2019-02-19T11:42:24.093Z,11.80
2019-02-19T11:44:55.107Z,11.80
2019-02-19T11:47:26.697Z,11.60
2019-02-19T11:49:57.355Z,11.50
2019-02-19T11:52:27.769Z,11.20
2019-02-19T11:54:59.074Z,10.90
2019-02-19T11:57:30.006Z,10.70
2019-02-19T12:00:00.384Z,10.50
2019-02-19T12:02:32.893Z,10.40
2019-02-19T12:05:03.397Z,10.40
2019-02-19T12:07:33.833Z,10.40
2019-02-19T12:10:06.137Z,10.30
2019-02-19T12:12:36.588Z,10.40
2019-02-19T12:15:12.824Z,10.50
2019-02-19T12:17:43.237Z,10.90
2019-02-19T12:20:15.609Z,11.30
2019-02-19T12:22:46.023Z,11.60
2019-02-19T12:25:16.419Z,11.80
2019-02-19T12:27:46.859Z,11.90
2019-02-19T12:30:20.005Z,11.90
2019-02-19T12:32:50.345Z,11.90
2019-02-19T12:35:20.727Z,12.10
2019-02-19T12:37:51.098Z,12.10
2019-02-19T12:40:21.584Z,12.20
2019-02-19T12:42:51.949Z,11.90
2019-02-19T12:45:22.341Z,11.90
2019-02-19T12:47:52.718Z,11.90
2019-02-19T12:50:23.107Z,12.10
2019-02-19T12:52:53.477Z,12.10
2019-02-19T12:55:23.869Z,12.00
2019-02-19T12:57:54.310Z,11.90
2019-02-19T13:00:25.765Z,11.80
2019-02-19T13:02:56.212Z,11.60
2019-02-19T13:05:26.601Z,11.60
2019-02-19T13:07:56.967Z,11.50
2019-02-19T13:10:27.359Z,11.50
2019-02-19T13:12:57.726Z,11.60
2019-02-19T13:15:28.125Z,11.80
2019-02-19T13:17:58.489Z,11.90
2019-02-19T13:20:28.889Z,12.00
2019-02-19T13:22:59.258Z,12.30
2019-02-19T13:25:29.658Z,12.80
2019-02-19T13:28:00.046Z,13.00
2019-02-19T13:30:30.493Z,12.70
2019-02-19T13:33:00.923Z,12.30
2019-02-19T13:35:31.311Z,12.20
2019-02-19T13:38:01.677Z,11.80
2019-02-19T13:40:32.060Z,11.70
2019-02-19T13:43:02.425Z,11.60
2019-02-19T13:45:32.820Z,11.50
2019-02-19T13:48:05.963Z,11.40
2019-02-19T13:50:35.280Z,11.40
2019-02-19T13:53:22.332Z,11.30
2019-02-19T13:55:54.364Z,11.20
2019-02-19T13:58:44.080Z,11.10
2019-02-19T14:01:14.457Z,11.30
2019-02-19T14:03:44.820Z,11.40
2019-02-19T14:06:15.292Z,11.60
2019-02-19T14:08:45.682Z,11.60
2019-02-19T14:11:16.172Z,11.60
2019-02-19T14:13:48.178Z,11.50
2019-02-19T14:16:20.212Z,11.40
2019-02-19T14:18:52.262Z,11.30
2019-02-19T14:21:42.447Z,11.30
2019-02-19T14:24:14.852Z,11.40
2019-02-19T14:27:03.288Z,11.40
2019-02-19T14:29:42.661Z,11.20
2019-02-19T14:32:31.036Z,11.20
2019-02-19T14:35:11.916Z,11.20
2019-02-19T14:38:00.172Z,11.30
2019-02-19T14:40:43.964Z,11.40
2019-02-19T14:43:25.094Z,11.50
2019-02-19T14:45:57.122Z,11.50
2019-02-19T14:48:45.452Z,11.50
2019-02-19T14:51:17.362Z,11.40
2019-02-19T14:54:07.800Z,11.40
2019-02-19T14:56:55.959Z,11.20
2019-02-19T14:59:38.134Z,11.10
2019-02-19T15:02:13.221Z,11.00
2019-02-19T15:04:57.295Z,10.90
2019-02-19T15:07:35.201Z,10.80
2019-02-19T15:10:13.529Z,10.70
2019-02-19T15:12:45.694Z,10.60
2019-02-19T15:15:24.284Z,10.50
2019-02-19T15:18:02.127Z,10.30
2019-02-19T15:20:50.300Z,10.30
2019-02-19T15:23:28.280Z,10.20
2019-02-19T15:26:18.359Z,10.10
2019-02-19T15:29:02.315Z,10.10
2019-02-19T15:31:46.640Z,10.00
2019-02-19T15:34:35.136Z,9.90
2019-02-19T15:37:10.788Z,9.80
2019-02-19T15:39:45.961Z,9.70
2019-02-19T15:42:34.011Z,9.70
2019-02-19T15:45:07.737Z,9.70
2019-02-19T15:47:39.769Z,9.60
2019-02-19T15:50:14.815Z,9.60
2019-02-19T15:53:01.861Z,9.60
2019-02-19T15:55:45.642Z,9.60
2019-02-19T15:58:26.617Z,9.50
2019-02-19T16:01:14.887Z,9.50
2019-02-19T16:03:49.871Z,9.40
2019-02-19T16:06:24.580Z,9.40
2019-02-19T16:09:13.005Z,9.50
2019-02-19T16:11:45.692Z,9.40
2019-02-19T16:14:23.473Z,9.40
2019-02-19T16:16:55.503Z,9.40
2019-02-19T16:19:30.477Z,9.40
2019-02-19T16:22:07.908Z,9.40
2019-02-19T16:24:48.993Z,9.40
2019-02-19T16:27:33.229Z,9.40
2019-02-19T16:30:12.007Z,9.40
2019-02-19T16:32:44.184Z,9.30
2019-02-19T16:35:21.952Z,9.30
2019-02-19T16:38:02.985Z,9.30
2019-02-19T16:40:40.915Z,9.30
2019-02-19T16:43:19.064Z,9.30
2019-02-19T16:45:51.063Z,9.30
2019-02-19T16:48:26.034Z,9.30
2019-02-19T16:51:03.959Z,9.20
2019-02-19T16:53:53.938Z,9.20
2019-02-19T16:56:44.025Z,9.10
2019-02-19T16:59:18.768Z,9.20
2019-02-19T17:01:50.768Z,9.10
2019-02-19T17:04:24.973Z,9.10
2019-02-19T17:06:58.034Z,9.10
2019-02-19T17:09:35.946Z,9.10
2019-02-19T17:12:07.976Z,9.10
2019-02-19T17:14:49.262Z,9.00
2019-02-19T17:17:21.288Z,9.00
2019-02-19T17:19:55.929Z,9.00
2019-02-19T17:22:30.734Z,9.00
2019-02-19T17:25:14.898Z,9.10
2019-02-19T17:27:46.923Z,9.10
2019-02-19T17:30:35.364Z,9.00
2019-02-19T17:33:19.215Z,9.10
2019-02-19T17:35:57.219Z,9.10
2019-02-19T17:38:38.483Z,9.10
2019-02-19T17:41:10.493Z,9.10
2019-02-19T17:43:54.493Z,9.10
2019-02-19T17:46:29.334Z,9.10
2019-02-19T17:49:14.319Z,9.10
2019-02-19T17:51:49.267Z,9.10
2019-02-19T17:54:21.299Z,9.10
2019-02-19T17:56:57.164Z,9.10
2019-02-19T17:59:41.135Z,9.00
2019-02-19T18:02:16.085Z,9.00
2019-02-19T18:08:01.244Z,8.80
2019-02-19T18:10:38.942Z,8.70
2019-02-19T18:13:29.569Z,8.70
2019-02-19T18:19:09.305Z,8.70
2019-02-19T18:21:39.655Z,8.70
2019-02-19T18:24:10.032Z,8.70
2019-02-19T18:26:40.386Z,8.70
2019-02-19T18:29:10.860Z,8.70
2019-02-19T18:31:41.217Z,8.70
2019-02-19T18:34:11.617Z,8.70
2019-02-19T18:36:42.913Z,8.70
2019-02-19T18:39:13.309Z,8.80
2019-02-19T18:41:43.670Z,8.80
2019-02-19T18:44:15.014Z,8.80
2019-02-19T18:46:45.434Z,8.80
2019-02-19T18:49:15.814Z,8.90
2019-02-19T18:51:46.182Z,8.90
2019-02-19T18:54:16.553Z,8.90
2019-02-19T18:56:46.905Z,8.90
2019-02-19T18:59:17.293Z,8.90
2019-02-19T19:01:47.646Z,8.90
2019-02-19T19:04:18.044Z,8.90
2019-02-19T19:06:48.425Z,8.80
2019-02-19T19:09:18.804Z,8.80
2019-02-19T19:11:49.161Z,8.90
2019-02-19T19:14:19.539Z,8.90
2019-02-19T19:16:49.908Z,8.90
2019-02-19T19:19:20.290Z,8.90
2019-02-19T19:21:50.653Z,8.80
2019-02-19T19:24:21.039Z,8.90
2019-02-19T19:26:51.401Z,8.80
2019-02-19T19:29:21.817Z,8.80
2019-02-19T19:31:52.245Z,8.80
2019-02-19T19:34:22.622Z,8.90
2019-02-19T19:36:52.974Z,8.80
2019-02-19T19:39:23.360Z,8.70
2019-02-19T19:41:53.745Z,8.60
2019-02-19T19:44:24.982Z,8.40
2019-02-19T19:46:55.368Z,8.20
2019-02-19T19:49:25.746Z,7.90
2019-02-19T19:52:15.744Z,7.70
2019-02-19T19:54:46.122Z,7.50
2019-02-19T19:57:35.823Z,7.30
2019-02-19T20:00:10.325Z,7.20
2019-02-19T20:02:40.766Z,7.00
2019-02-19T20:05:11.803Z,6.90
2019-02-19T20:07:42.225Z,6.80
2019-02-19T20:10:16.328Z,6.80
2019-02-19T20:12:46.672Z,6.70
2019-02-19T20:15:17.054Z,6.70
2019-02-19T20:17:47.429Z,6.60
2019-02-19T20:20:17.818Z,6.60
2019-02-19T20:22:48.178Z,6.60
2019-02-19T20:25:18.560Z,6.50
2019-02-19T20:27:48.921Z,6.50
2019-02-19T20:30:19.392Z,6.40
2019-02-19T20:32:49.754Z,6.30
2019-02-19T20:35:20.149Z,6.30
2019-02-19T20:37:54.119Z,6.20
2019-02-19T20:40:22.626Z,6.10
2019-02-19T20:42:55.086Z,6.00
2019-02-19T20:45:25.127Z,5.90
2019-02-19T20:47:55.488Z,5.80
2019-02-19T20:50:25.864Z,5.80
2019-02-19T20:52:56.299Z,5.70
2019-02-19T20:55:26.681Z,5.60
2019-02-19T20:57:57.029Z,5.50
2019-02-19T21:00:27.468Z,5.50
2019-02-19T21:02:57.848Z,5.50
2019-02-19T21:05:28.272Z,5.60
2019-02-19T21:07:58.813Z,5.70
2019-02-19T21:10:29.294Z,5.80
2019-02-19T21:12:59.651Z,5.90
2019-02-19T21:15:30.033Z,6.00
2019-02-19T21:18:00.391Z,6.10
2019-02-19T21:20:30.777Z,6.20
2019-02-19T21:23:01.131Z,6.20
2019-02-19T21:25:31.525Z,6.30
2019-02-19T21:28:02.074Z,6.30
2019-02-19T21:30:32.454Z,6.30
2019-02-19T21:33:02.934Z,6.30
2019-02-19T21:35:33.288Z,6.20
2019-02-19T21:38:03.667Z,6.20
2019-02-19T21:40:34.025Z,6.10
2019-02-19T21:43:04.482Z,6.00
2019-02-19T21:45:34.826Z,6.00
2019-02-19T21:48:05.234Z,5.90
2019-02-19T21:50:35.647Z,5.80
2019-02-19T21:53:06.050Z,5.70
2019-02-19T21:55:36.446Z,5.70
2019-02-19T21:58:06.800Z,5.70
2019-02-19T22:00:37.150Z,5.70
2019-02-19T22:03:07.589Z,5.80
2019-02-19T22:05:38.282Z,5.80
2019-02-19T22:08:08.648Z,5.80
2019-02-19T22:10:38.992Z,5.70
2019-02-19T22:13:09.590Z,5.70
2019-02-19T22:15:40.157Z,5.60
2019-02-19T22:18:12.569Z,5.60
2019-02-19T22:20:50.350Z,5.60
2019-02-19T22:23:20.732Z,5.60
2019-02-19T22:25:51.109Z,5.60
2019-02-19T22:28:22.963Z,5.60
2019-02-19T22:30:54.353Z,5.70
2019-02-19T22:33:24.990Z,5.60
2019-02-19T22:35:55.341Z,5.60
2019-02-19T22:38:25.747Z,5.60
2019-02-19T22:40:56.103Z,5.60
2019-02-19T22:43:26.478Z,5.60
2019-02-19T22:45:56.840Z,5.50
2019-02-19T22:48:28.912Z,5.50
2019-02-19T22:50:59.466Z,5.50
2019-02-19T22:53:34.163Z,5.40
2019-02-19T22:56:09.358Z,5.40
2019-02-19T22:58:39.746Z,5.50
2019-02-19T23:01:13.171Z,5.50
2019-02-19T23:03:43.906Z,5.60
2019-02-19T23:06:14.331Z,5.60
2019-02-19T23:08:44.701Z,5.60
2019-02-19T23:11:15.051Z,5.70
2019-02-19T23:13:45.417Z,5.70
2019-02-19T23:16:15.770Z,5.70
2019-02-19T23:18:46.144Z,5.80
2019-02-19T23:21:16.495Z,5.80
2019-02-19T23:23:46.871Z,5.80
2019-02-19T23:26:17.232Z,5.80
2019-02-19T23:28:47.611Z,5.80
2019-02-19T23:31:17.972Z,5.90
2019-02-19T23:33:48.355Z,5.90
2019-02-19T23:36:20.402Z,5.90
2019-02-19T23:38:50.734Z,5.90
2019-02-19T23:41:21.099Z,6.00
2019-02-19T23:43:51.485Z,6.00
2019-02-19T23:46:21.843Z,6.00
2019-02-19T23:48:52.221Z,6.00
2019-02-19T23:51:22.590Z,6.00
2019-02-19T23:53:52.955Z,6.00
2019-02-19T23:56:23.321Z,6.10
2019-02-19T23:58:53.693Z,6.20
